Time;durP1;ratioP1;P1;durP2;ratioP2;P2;SDS_P1;SDS_P2;PMS_P1;PMS_P2;Temp;Humidity;BMP_temperature;BMP_pressure;BME280_temperature;BME280_humidity;BME280_pressure;Samples;Min_cycle;Max_cycle;Signal;HPM_P1;HPM_P2
2021/03/20 00:02:15;;;;;;;9.50;8.33;;;1.70;99.90;;;;;;5011346;28;20245;-74
2021/03/20 00:04:41;;;;;;;10.90;8.33;;;1.70;99.90;;;;;;5011229;28;20269;-74
2021/03/20 00:07:07;;;;;;;9.00;7.97;;;1.60;99.90;;;;;;5012040;28;20171;-74
2021/03/20 00:09:32;;;;;;;10.43;8.50;;;1.60;99.90;;;;;;5011339;28;20186;-74
2021/03/20 00:11:59;;;;;;;12.33;8.37;;;1.60;99.90;;;;;;5011757;28;20194;-74
2021/03/20 00:14:26;;;;;;;10.70;8.63;;;1.50;99.90;;;;;;5014796;28;20664;-75
2021/03/20 00:16:52;;;;;;;10.50;8.30;;;1.70;99.90;;;;;;5015572;28;20689;-74
2021/03/20 00:19:18;;;;;;;12.17;9.83;;;1.60;99.90;;;;;;5014829;28;20167;-74
2021/03/20 00:21:44;;;;;;;12.43;9.33;;;1.60;99.90;;;;;;5014130;28;20203;-74
2021/03/20 00:24:10;;;;;;;9.43;8.43;;;1.50;99.90;;;;;;5014125;28;20198;-74
2021/03/20 00:26:36;;;;;;;9.67;8.57;;;1.50;99.90;;;;;;5014317;28;20177;-74
2021/03/20 00:29:04;;;;;;;10.07;8.53;;;1.50;99.90;;;;;;5014371;28;20187;-74
2021/03/20 00:31:30;;;;;;;10.47;8.50;;;1.50;99.90;;;;;;5014443;28;20210;-74
2021/03/20 00:33:55;;;;;;;9.97;8.83;;;1.50;99.90;;;;;;5011930;28;20637;-74
2021/03/20 00:36:21;;;;;;;12.50;8.73;;;1.40;99.90;;;;;;5029510;28;20194;-74
2021/03/20 00:38:48;;;;;;;10.67;9.27;;;1.40;99.90;;;;;;5014135;28;20222;-74
2021/03/20 00:41:14;;;;;;;12.60;9.70;;;1.40;99.90;;;;;;5014062;28;20206;-74
2021/03/20 00:43:40;;;;;;;14.93;10.80;;;1.40;99.90;;;;;;5014991;28;20687;-74
2021/03/20 00:46:08;;;;;;;12.63;10.17;;;1.40;99.90;;;;;;5030897;28;20755;-74
2021/03/20 00:48:38;;;;;;;14.93;10.03;;;1.40;99.90;;;;;;5014414;28;20171;-74
2021/03/20 00:51:04;;;;;;;12.83;9.87;;;1.40;99.90;;;;;;5013999;28;20278;-74
2021/03/20 00:53:31;;;;;;;12.63;9.53;;;1.40;99.90;;;;;;5014301;28;20179;-74
2021/03/20 00:55:58;;;;;;;10.77;9.03;;;1.40;99.90;;;;;;5014079;28;20274;-74
2021/03/20 00:58:30;;;;;;;10.63;9.43;;;1.30;99.90;;;;;;5013915;28;20680;-74
2021/03/20 01:01:06;;;;;;;11.77;9.53;;;1.30;99.90;;;;;;5013713;28;20262;-74
2021/03/20 01:03:32;;;;;;;11.07;9.20;;;1.30;99.90;;;;;;5013791;28;20202;-74
2021/03/20 01:05:59;;;;;;;12.57;9.50;;;1.30;99.90;;;;;;5012506;28;20564;-74
2021/03/20 01:08:25;;;;;;;9.67;8.67;;;1.30;99.90;;;;;;5013678;28;20167;-74
2021/03/20 01:10:52;;;;;;;12.87;8.73;;;1.30;99.90;;;;;;5012360;28;20290;-74
2021/03/20 01:13:18;;;;;;;10.47;9.07;;;1.30;99.90;;;;;;5013613;28;20191;-74
2021/03/20 01:15:45;;;;;;;12.43;9.63;;;1.30;99.90;;;;;;5012968;28;20179;-74
2021/03/20 01:18:12;;;;;;;12.83;9.60;;;1.30;99.90;;;;;;5013558;28;20189;-74
2021/03/20 01:20:38;;;;;;;12.83;9.67;;;1.20;99.90;;;;;;5013322;28;20286;-74
2021/03/20 01:23:04;;;;;;;12.57;10.30;;;1.10;99.90;;;;;;4996576;28;20199;-74
2021/03/20 01:25:31;;;;;;;13.10;9.30;;;1.10;99.90;;;;;;5028673;28;20191;-74
2021/03/20 01:27:57;;;;;;;10.40;9.30;;;1.10;99.90;;;;;;5013392;28;20175;-74
2021/03/20 01:30:27;;;;;;;10.97;9.70;;;1.10;99.90;;;;;;5013561;28;20175;-74
2021/03/20 01:32:53;;;;;;;12.33;9.40;;;1.10;99.90;;;;;;5013038;28;20183;-74
2021/03/20 01:35:20;;;;;;;11.77;10.00;;;1.10;99.90;;;;;;5013260;28;20183;-73
2021/03/20 01:37:46;;;;;;;10.50;9.13;;;1.10;99.90;;;;;;5013284;28;20179;-73
2021/03/20 01:40:14;;;;;;;11.87;10.10;;;1.00;99.90;;;;;;5014305;28;20396;-73
2021/03/20 01:42:44;;;;;;;11.03;9.50;;;1.00;99.90;;;;;;5012893;28;20203;-73
2021/03/20 01:45:24;;;;;;;11.33;9.73;;;1.00;99.90;;;;;;5013406;28;20178;-73
2021/03/20 01:48:09;;;;;;;11.60;9.30;;;1.00;99.90;;;;;;5011951;28;20205;-73
2021/03/20 01:50:45;;;;;;;14.37;9.50;;;0.90;99.90;;;;;;5013264;28;20198;-73
2021/03/20 01:53:35;;;;;;;11.33;9.57;;;0.90;99.90;;;;;;5011632;28;20214;-73
2021/03/20 01:56:04;;;;;;;13.37;9.77;;;0.90;99.90;;;;;;5013109;28;20190;-73
2021/03/20 01:58:31;;;;;;;12.90;10.10;;;0.90;99.90;;;;;;5012902;28;20194;-73
2021/03/20 02:01:07;;;;;;;12.47;9.60;;;0.90;99.90;;;;;;5012780;28;20199;-74
2021/03/20 02:03:34;;;;;;;11.83;9.80;;;0.80;99.90;;;;;;5012594;28;20252;-75
2021/03/20 02:06:01;;;;;;;13.57;9.77;;;0.80;99.90;;;;;;5012764;28;20530;-74
2021/03/20 02:08:28;;;;;;;10.27;9.10;;;0.80;99.90;;;;;;5012718;28;20171;-74
2021/03/20 02:11:01;;;;;;;13.60;10.53;;;0.80;99.90;;;;;;5011267;28;20205;-74
2021/03/20 02:13:45;;;;;;;13.13;9.40;;;1.00;99.90;;;;;;5012636;28;20568;-74
2021/03/20 02:16:25;;;;;;;13.37;10.07;;;0.80;99.90;;;;;;5003228;28;20179;-74
2021/03/20 02:19:38;;;;;;;12.50;9.47;;;0.80;99.90;;;;;;5012542;28;20178;-74
2021/03/20 02:22:14;;;;;;;12.10;8.93;;;0.70;99.90;;;;;;4966610;28;20229;-74
2021/03/20 02:24:55;;;;;;;12.07;9.60;;;0.70;99.90;;;;;;5012316;28;20259;-74
2021/03/20 02:27:46;;;;;;;12.30;9.20;;;0.70;99.90;;;;;;5012336;28;20279;-74
2021/03/20 02:30:42;;;;;;;11.37;9.60;;;0.60;99.90;;;;;;5012366;28;20182;-74
2021/03/20 02:33:13;;;;;;;12.00;9.37;;;0.70;99.90;;;;;;5012300;28;20212;-75
2021/03/20 02:35:42;;;;;;;10.93;9.60;;;0.70;99.90;;;;;;5010513;28;20266;-74
2021/03/20 02:38:17;;;;;;;12.43;9.97;;;0.70;99.90;;;;;;5009204;28;20183;-74
2021/03/20 02:41:02;;;;;;;10.80;9.63;;;0.70;99.90;;;;;;5006052;28;20261;-74
2021/03/20 02:43:32;;;;;;;13.20;9.63;;;0.70;99.90;;;;;;5012348;28;20203;-74
2021/03/20 02:46:34;;;;;;;14.87;10.53;;;0.60;99.90;;;;;;5013441;28;20262;-74
2021/03/20 02:49:10;;;;;;;12.93;9.83;;;0.60;99.90;;;;;;5010180;28;20194;-74
2021/03/20 02:51:49;;;;;;;14.30;9.77;;;0.60;99.90;;;;;;5012112;28;20602;-74
2021/03/20 02:54:42;;;;;;;10.93;8.83;;;0.50;99.90;;;;;;5011750;28;20219;-75
2021/03/20 02:57:17;;;;;;;13.13;9.83;;;0.50;99.90;;;;;;5011847;28;20186;-74
2021/03/20 02:59:53;;;;;;;14.17;10.37;;;0.50;99.90;;;;;;5011802;28;20726;-74
2021/03/20 03:02:20;;;;;;;11.67;9.43;;;0.40;99.90;;;;;;5011818;28;20206;-74
2021/03/20 03:05:00;;;;;;;11.27;9.53;;;0.30;99.90;;;;;;5010325;28;20207;-74
2021/03/20 03:07:30;;;;;;;15.37;10.40;;;0.30;99.90;;;;;;5006477;28;20190;-74
2021/03/20 03:10:14;;;;;;;13.30;10.03;;;0.30;99.90;;;;;;5010922;28;20182;-74
2021/03/20 03:12:47;;;;;;;12.07;10.10;;;0.20;99.90;;;;;;5011702;28;20178;-74
2021/03/20 03:15:35;;;;;;;14.23;9.97;;;0.20;99.90;;;;;;5011808;28;20195;-74
2021/03/20 03:18:12;;;;;;;13.20;9.60;;;0.10;99.90;;;;;;5011713;28;20537;-74
2021/03/20 03:21:00;;;;;;;11.23;9.53;;;0.10;99.90;;;;;;5008766;28;20205;-73
2021/03/20 03:23:37;;;;;;;12.10;9.47;;;0.10;99.90;;;;;;5012951;28;20210;-74
2021/03/20 03:26:24;;;;;;;13.00;9.73;;;0.10;99.90;;;;;;5012403;28;20213;-74
2021/03/20 03:28:53;;;;;;;11.40;9.77;;;0.20;99.90;;;;;;5010880;28;20181;-74
2021/03/20 03:31:36;;;;;;;13.03;9.87;;;0.20;99.90;;;;;;5008644;28;20197;-74
2021/03/20 03:34:24;;;;;;;11.90;9.93;;;0.20;99.90;;;;;;5002868;28;20210;-74
2021/03/20 03:37:04;;;;;;;12.60;9.10;;;0.20;99.90;;;;;;5009462;28;20586;-74
2021/03/20 03:39:44;;;;;;;13.33;10.23;;;0.20;99.90;;;;;;5009591;28;20571;-74
2021/03/20 03:42:13;;;;;;;11.73;9.63;;;0.30;99.90;;;;;;5010779;28;20272;-74
2021/03/20 03:44:45;;;;;;;11.17;8.97;;;0.20;99.90;;;;;;5010793;28;20206;-74
2021/03/20 03:47:20;;;;;;;11.53;8.90;;;0.20;99.90;;;;;;5010604;28;20281;-73
2021/03/20 03:49:46;;;;;;;10.13;8.73;;;0.20;99.90;;;;;;5015742;28;20520;-73
2021/03/20 03:52:13;;;;;;;10.57;8.97;;;0.20;99.90;;;;;;5015001;28;20264;-73
2021/03/20 03:54:40;;;;;;;11.67;8.90;;;0.20;99.90;;;;;;5015016;28;20293;-74
2021/03/20 03:57:14;;;;;;;11.53;8.80;;;0.20;99.90;;;;;;5015046;28;20214;-74
2021/03/20 03:59:43;;;;;;;10.77;9.57;;;0.20;99.90;;;;;;5014821;28;20185;-74
2021/03/20 04:02:38;;;;;;;10.47;9.27;;;0.20;99.90;;;;;;5015068;28;20210;-74
2021/03/20 04:05:22;;;;;;;12.57;9.20;;;0.20;99.90;;;;;;4988895;28;20290;-74
2021/03/20 04:08:17;;;;;;;10.83;8.90;;;0.20;99.90;;;;;;5031428;28;20193;-74
2021/03/20 04:10:49;;;;;;;11.33;9.37;;;0.20;99.90;;;;;;5015945;28;20346;-74
2021/03/20 04:13:33;;;;;;;12.30;9.23;;;0.20;99.90;;;;;;5015906;28;20245;-74
2021/03/20 04:16:10;;;;;;;10.10;9.10;;;0.20;99.90;;;;;;5016057;28;20179;-73
2021/03/20 04:18:41;;;;;;;11.80;9.03;;;0.20;99.90;;;;;;5014766;28;20606;-74
2021/03/20 04:21:30;;;;;;;13.07;9.73;;;0.20;99.90;;;;;;5015832;28;20209;-73
2021/03/20 04:24:09;;;;;;;10.93;8.60;;;0.10;99.90;;;;;;5015771;28;20209;-73
2021/03/20 04:27:05;;;;;;;11.07;9.77;;;0.10;99.90;;;;;;5015942;28;20196;-74
2021/03/20 04:29:55;;;;;;;13.27;8.67;;;0.10;99.90;;;;;;5014855;28;20182;-74
2021/03/20 04:32:30;;;;;;;11.67;8.70;;;0.10;99.90;;;;;;5014099;28;20293;-74
2021/03/20 04:35:06;;;;;;;10.30;8.23;;;0.10;99.90;;;;;;5014136;28;20722;-74
2021/03/20 04:37:37;;;;;;;11.20;8.80;;;0.10;99.90;;;;;;5012456;28;20243;-74
2021/03/20 04:40:05;;;;;;;9.67;8.53;;;0.00;99.90;;;;;;5014309;28;20742;-74
2021/03/20 04:42:35;;;;;;;10.73;8.47;;;0.00;99.90;;;;;;5013954;28;20221;-74
2021/03/20 04:45:08;;;;;;;9.87;8.47;;;0.00;99.90;;;;;;5015677;28;20189;-74
2021/03/20 04:47:37;;;;;;;12.97;9.17;;;0.00;99.90;;;;;;5014975;28;20197;-73
2021/03/20 04:50:30;;;;;;;9.70;8.33;;;0.00;99.90;;;;;;5014016;28;20178;-74
2021/03/20 04:52:59;;;;;;;8.87;7.73;;;0.00;99.90;;;;;;5011601;28;20198;-74
2021/03/20 04:55:26;;;;;;;9.73;8.40;;;0.00;99.90;;;;;;5013900;28;20197;-74
2021/03/20 04:58:02;;;;;;;10.27;9.00;;;0.00;99.90;;;;;;5012926;28;20388;-74
2021/03/20 05:00:36;;;;;;;10.93;8.43;;;0.00;99.90;;;;;;5010822;28;20209;-74
2021/03/20 05:03:21;;;;;;;10.33;8.97;;;-0.10;99.90;;;;;;5012471;28;20206;-74
2021/03/20 05:06:17;;;;;;;12.33;9.20;;;-0.10;99.90;;;;;;5007327;28;20186;-74
2021/03/20 05:08:57;;;;;;;9.47;8.27;;;-0.20;99.90;;;;;;4996550;28;20203;-74
2021/03/20 05:11:33;;;;;;;10.80;9.33;;;-0.20;99.90;;;;;;5013669;28;20235;-74
2021/03/20 05:14:02;;;;;;;13.13;9.30;;;-0.30;99.90;;;;;;5014187;28;20185;-74
2021/03/20 05:16:48;;;;;;;13.63;9.60;;;-0.20;99.90;;;;;;5014978;28;20594;-74
2021/03/20 05:19:15;;;;;;;10.87;8.70;;;-0.20;99.90;;;;;;5014948;28;20196;-74
2021/03/20 05:21:43;;;;;;;10.87;8.50;;;-0.20;99.90;;;;;;5012709;28;20220;-74
2021/03/20 05:24:21;;;;;;;10.97;9.37;;;-0.20;99.90;;;;;;5013056;28;20259;-74
2021/03/20 05:26:48;;;;;;;11.73;9.00;;;-0.20;99.90;;;;;;5013378;28;20826;-74
2021/03/20 05:29:13;;;;;;;9.53;8.53;;;-0.20;99.90;;;;;;5013271;28;20552;-75
2021/03/20 05:31:40;;;;;;;11.50;8.57;;;-0.10;99.90;;;;;;5013191;28;20676;-75
2021/03/20 05:34:28;;;;;;;9.67;8.67;;;-0.10;99.90;;;;;;5011885;28;20218;-75
2021/03/20 05:36:54;;;;;;;10.77;9.00;;;-0.10;99.90;;;;;;5002580;28;20233;-74
2021/03/20 05:39:21;;;;;;;12.43;9.43;;;-0.10;99.90;;;;;;5013022;28;20213;-75
2021/03/20 05:42:01;;;;;;;13.27;9.30;;;-0.10;99.90;;;;;;5012968;28;20221;-74
2021/03/20 05:44:47;;;;;;;9.70;8.80;;;-0.10;99.90;;;;;;5013938;28;20263;-75
2021/03/20 05:48:03;;;;;;;17.13;10.37;;;-0.10;99.90;;;;;;5013012;28;20695;-74
2021/03/20 05:51:01;;;;;;;11.87;8.67;;;0.00;99.90;;;;;;4952070;28;20199;-75
2021/03/20 05:53:54;;;;;;;11.10;8.63;;;0.00;99.90;;;;;;4952268;29;20190;-75
2021/03/20 05:56:42;;;;;;;9.93;8.50;;;0.00;99.90;;;;;;5008608;28;20203;-75
2021/03/20 05:59:22;;;;;;;14.20;8.77;;;0.00;99.90;;;;;;5027947;28;20732;-73
2021/03/20 06:02:16;;;;;;;10.63;9.03;;;-0.10;99.90;;;;;;5012605;28;20549;-73
2021/03/20 06:04:59;;;;;;;12.50;9.50;;;0.00;99.90;;;;;;5011213;28;20208;-74
2021/03/20 06:07:41;;;;;;;13.33;10.30;;;0.00;99.90;;;;;;5010693;28;20190;-74
2021/03/20 06:10:18;;;;;;;10.97;8.63;;;0.00;99.90;;;;;;5012605;28;20251;-74
2021/03/20 06:12:53;;;;;;;11.77;8.93;;;0.00;99.90;;;;;;5012356;28;20656;-74
2021/03/20 06:15:37;;;;;;;11.53;9.80;;;0.10;99.90;;;;;;5012189;28;20187;-73
2021/03/20 06:18:38;;;;;;;11.53;9.70;;;0.10;99.90;;;;;;5027722;28;20199;-74
2021/03/20 06:21:49;;;;;;;11.50;9.30;;;0.10;99.90;;;;;;5012445;28;20288;-73
2021/03/20 06:25:00;;;;;;;81.07;27.00;;;0.20;99.90;;;;;;4989169;28;20237;-74
2021/03/20 06:27:40;;;;;;;16.60;10.67;;;0.20;99.90;;;;;;4976723;23;20215;-73
2021/03/20 06:30:27;;;;;;;17.03;10.63;;;0.20;99.90;;;;;;4991307;28;20183;-73
2021/03/20 06:32:58;;;;;;;11.23;9.43;;;0.20;99.90;;;;;;4992582;28;20173;-74
2021/03/20 06:35:35;;;;;;;11.70;9.60;;;0.20;99.90;;;;;;4989971;28;20654;-74
2021/03/20 06:38:03;;;;;;;17.13;10.37;;;0.30;99.90;;;;;;4981168;28;20254;-74
2021/03/20 06:40:47;;;;;;;37.03;19.37;;;0.30;99.90;;;;;;5007521;28;20175;-74
2021/03/20 06:43:15;;;;;;;13.40;10.40;;;0.30;99.90;;;;;;4991024;28;20202;-74
2021/03/20 06:46:01;;;;;;;10.87;9.17;;;0.40;99.90;;;;;;4991071;28;20171;-74
2021/03/20 06:48:31;;;;;;;13.40;9.93;;;0.40;99.90;;;;;;4991256;28;20269;-74
2021/03/20 06:50:58;;;;;;;9.93;8.90;;;0.50;99.90;;;;;;4992400;28;20266;-74
2021/03/20 06:53:29;;;;;;;13.30;9.33;;;0.50;99.90;;;;;;4991436;28;20179;-73
2021/03/20 06:55:57;;;;;;;10.50;9.00;;;0.60;99.90;;;;;;4992549;28;20190;-74
2021/03/20 06:58:32;;;;;;;13.20;9.40;;;0.60;99.90;;;;;;4992087;28;20682;-73
2021/03/20 07:01:01;;;;;;;12.13;9.80;;;0.60;99.90;;;;;;4992255;28;20194;-74
2021/03/20 07:04:07;;;;;;;12.00;9.30;;;0.50;99.90;;;;;;4989937;28;20241;-73
2021/03/20 07:07:00;;;;;;;11.27;8.83;;;0.50;99.90;;;;;;4990635;28;20181;-74
2021/03/20 07:09:26;;;;;;;10.90;9.50;;;0.50;99.90;;;;;;4991956;28;20183;-74
2021/03/20 07:12:10;;;;;;;12.23;9.63;;;0.50;99.90;;;;;;4990594;28;20170;-73
2021/03/20 07:14:46;;;;;;;11.27;9.43;;;0.50;99.90;;;;;;4990543;28;20733;-73
2021/03/20 07:17:34;;;;;;;12.27;9.57;;;0.50;99.90;;;;;;5006840;28;20217;-74
2021/03/20 07:20:24;;;;;;;10.63;8.50;;;0.60;99.90;;;;;;4989552;28;20722;-74
2021/03/20 07:23:07;;;;;;;11.80;9.73;;;0.60;99.90;;;;;;4989854;28;20262;-74
2021/03/20 07:25:39;;;;;;;15.23;10.30;;;0.60;99.90;;;;;;4992782;28;20168;-74
2021/03/20 07:28:10;;;;;;;12.80;10.13;;;0.70;99.90;;;;;;4992342;28;20220;-74
2021/03/20 07:30:45;;;;;;;10.17;9.13;;;0.60;99.90;;;;;;4992660;28;20641;-74
2021/03/20 07:33:41;;;;;;;14.30;10.97;;;0.60;99.90;;;;;;4980493;28;20190;-73
2021/03/20 07:36:29;;;;;;;12.93;9.90;;;0.60;99.90;;;;;;4990770;28;20543;-73
2021/03/20 07:39:09;;;;;;;13.47;10.80;;;0.70;99.90;;;;;;4993096;28;20205;-74
2021/03/20 07:41:46;;;;;;;10.47;9.00;;;0.90;99.90;;;;;;4993051;28;20179;-74
2021/03/20 07:44:12;;;;;;;13.57;10.20;;;1.00;99.90;;;;;;5007932;28;20662;-74
2021/03/20 07:46:39;;;;;;;11.27;9.20;;;1.00;99.90;;;;;;4993134;28;20171;-74
2021/03/20 07:49:17;;;;;;;10.40;9.30;;;1.10;99.90;;;;;;4993156;28;20215;-74
2021/03/20 07:52:05;;;;;;;15.63;11.00;;;1.10;99.90;;;;;;4994300;28;20180;-74
2021/03/20 07:54:37;;;;;;;12.87;8.60;;;1.10;99.90;;;;;;4991747;28;20187;-75
2021/03/20 07:57:17;;;;;;;9.20;7.90;;;1.10;99.90;;;;;;4992931;28;20168;-74
2021/03/20 07:59:52;;;;;;;8.93;8.03;;;1.00;99.90;;;;;;4995521;28;20195;-75
2021/03/20 08:02:37;;;;;;;11.73;10.10;;;1.00;99.90;;;;;;4984088;28;20182;-75
2021/03/20 08:05:25;;;;;;;10.30;8.77;;;1.00;99.90;;;;;;4991998;28;20207;-74
2021/03/20 08:07:54;;;;;;;10.20;8.13;;;1.00;99.90;;;;;;4993598;28;20196;-74
2021/03/20 08:10:23;;;;;;;11.03;9.73;;;0.90;99.90;;;;;;4992244;28;20175;-74
2021/03/20 08:12:53;;;;;;;11.00;8.30;;;0.90;99.90;;;;;;4992201;28;20554;-74
2021/03/20 08:15:29;;;;;;;10.27;8.83;;;0.80;99.90;;;;;;4993309;28;20696;-74
2021/03/20 08:17:57;;;;;;;9.20;8.00;;;0.90;99.90;;;;;;4992992;28;20226;-74
2021/03/20 08:20:24;;;;;;;9.70;8.70;;;0.90;99.90;;;;;;4993302;28;20646;-74
2021/03/20 08:23:22;;;;;;;12.03;9.30;;;0.90;99.90;;;;;;4993564;28;20179;-74
2021/03/20 08:25:57;;;;;;;10.83;8.37;;;0.90;99.90;;;;;;4976582;28;20217;-74
2021/03/20 08:28:36;;;;;;;9.90;8.90;;;1.00;99.90;;;;;;4991769;28;20214;-75
2021/03/20 08:31:14;;;;;;;9.23;8.27;;;1.00;99.90;;;;;;4993731;28;20246;-75
2021/03/20 08:33:53;;;;;;;13.63;9.67;;;1.10;99.90;;;;;;4994241;28;20283;-75
2021/03/20 08:36:19;;;;;;;8.53;7.63;;;1.10;99.90;;;;;;4996830;28;20179;-75
2021/03/20 08:39:03;;;;;;;10.17;8.13;;;1.10;99.90;;;;;;4996857;28;20199;-75
2021/03/20 08:42:08;;;;;;;9.80;7.57;;;1.10;99.90;;;;;;4996846;28;20172;-75
2021/03/20 08:45:06;;;;;;;13.10;8.17;;;1.10;99.90;;;;;;4950018;28;20215;-75
2021/03/20 08:47:47;;;;;;;10.03;8.50;;;1.20;99.90;;;;;;4996628;28;20249;-75
2021/03/20 08:50:36;;;;;;;8.00;6.60;;;1.20;99.90;;;;;;4996398;28;20245;-75
2021/03/20 08:53:30;;;;;;;10.73;7.03;;;1.20;99.90;;;;;;4993347;28;20175;-75
2021/03/20 08:56:37;;;;;;;12.50;9.90;;;1.20;99.90;;;;;;4994841;28;20172;-75
2021/03/20 08:59:21;;;;;;;6.77;6.07;;;1.30;99.90;;;;;;5010366;28;20194;-75
2021/03/20 09:01:49;;;;;;;6.27;5.67;;;1.20;99.90;;;;;;4995849;28;20637;-76
2021/03/20 09:04:19;;;;;;;7.73;6.60;;;1.20;99.90;;;;;;4994903;28;20677;-75
2021/03/20 09:07:01;;;;;;;6.73;6.10;;;1.30;99.90;;;;;;4992148;28;20183;-75
2021/03/20 09:09:43;;;;;;;5.50;5.00;;;1.40;99.90;;;;;;4995704;28;20673;-75
2021/03/20 09:12:27;;;;;;;5.33;4.53;;;1.50;99.90;;;;;;5008639;28;20183;-75
2021/03/20 09:14:53;;;;;;;5.33;4.83;;;1.60;99.90;;;;;;4990716;28;20543;-74
2021/03/20 09:17:36;;;;;;;5.57;4.57;;;1.70;99.90;;;;;;4995157;28;20678;-75
2021/03/20 09:20:23;;;;;;;5.53;5.03;;;1.80;99.90;;;;;;4995947;28;20191;-74
2021/03/20 09:22:50;;;;;;;5.13;4.63;;;1.80;99.90;;;;;;4995924;28;20172;-74
2021/03/20 09:25:55;;;;;;;4.50;4.10;;;1.80;99.90;;;;;;4994659;28;20175;-74
2021/03/20 09:28:28;;;;;;;4.77;4.30;;;1.60;99.90;;;;;;4916655;29;20801;-75
2021/03/20 09:31:29;;;;;;;4.57;4.17;;;1.60;99.90;;;;;;4986283;28;20187;-74
2021/03/20 09:33:56;;;;;;;4.63;4.23;;;1.60;99.90;;;;;;4996687;28;20576;-73
2021/03/20 09:36:22;;;;;;;34.53;16.47;;;1.50;99.90;;;;;;4984063;28;20184;-75
2021/03/20 09:38:56;;;;;;;5.50;5.00;;;1.60;99.90;;;;;;4994444;28;20241;-75
2021/03/20 09:41:21;;;;;;;7.30;5.77;;;1.60;99.90;;;;;;4994399;28;20164;-75
2021/03/20 09:43:59;;;;;;;5.63;5.13;;;1.70;99.90;;;;;;4995459;28;20663;-75
2021/03/20 09:46:49;;;;;;;5.63;5.07;;;1.80;99.90;;;;;;4990738;28;20605;-75
2021/03/20 09:49:17;;;;;;;5.70;5.20;;;2.00;99.90;;;;;;4989777;28;20279;-75
2021/03/20 09:51:56;;;;;;;6.57;5.40;;;2.00;99.90;;;;;;4995469;28;20211;-74
2021/03/20 09:59:44;;;;;;;7.70;7.00;;;2.10;99.90;;;;;;4995786;28;20175;-75
2021/03/20 10:02:10;;;;;;;10.47;8.63;;;2.00;99.90;;;;;;4995319;28;20264;-74
2021/03/20 10:04:54;;;;;;;32.30;22.77;;;1.90;99.90;;;;;;4995200;28;20278;-74
2021/03/20 10:07:20;;;;;;;6.67;6.07;;;1.90;99.90;;;;;;4993909;28;20203;-74
2021/03/20 10:10:06;;;;;;;5.90;5.30;;;1.90;99.90;;;;;;4995248;28;20244;-74
2021/03/20 10:12:44;;;;;;;6.77;5.97;;;1.90;99.90;;;;;;4993883;28;20168;-74
2021/03/20 10:15:16;;;;;;;12.43;5.63;;;1.80;99.90;;;;;;4994811;28;20164;-74
2021/03/20 10:18:12;;;;;;;5.87;5.37;;;1.80;99.90;;;;;;4994978;28;20257;-74
2021/03/20 10:20:40;;;;;;;6.47;5.17;;;1.80;99.90;;;;;;4992819;28;20168;-74
2021/03/20 10:23:58;;;;;;;6.97;5.60;;;1.90;99.90;;;;;;4994560;28;20204;-75
2021/03/20 10:26:35;;;;;;;6.43;5.77;;;1.90;99.90;;;;;;4982133;28;20267;-74
2021/03/20 10:29:22;;;;;;;6.77;6.17;;;2.00;99.90;;;;;;4994558;28;20211;-75
2021/03/20 10:31:52;;;;;;;6.37;5.80;;;2.10;99.90;;;;;;5009929;28;20175;-74
2021/03/20 10:34:22;;;;;;;5.90;5.30;;;1.90;99.90;;;;;;4993465;28;20171;-74
2021/03/20 10:37:09;;;;;;;8.50;5.77;;;2.00;99.90;;;;;;4994687;28;20176;-75
2021/03/20 10:39:39;;;;;;;6.27;5.67;;;2.10;99.90;;;;;;4993369;28;20171;-74
2021/03/20 10:42:29;;;;;;;6.77;6.17;;;2.10;99.90;;;;;;4992911;28;20274;-74
2021/03/20 10:44:59;;;;;;;7.03;5.90;;;2.00;99.90;;;;;;5009442;28;20199;-74
2021/03/20 10:47:34;;;;;;;7.07;5.60;;;2.20;99.90;;;;;;4994351;28;20204;-75
2021/03/20 10:50:01;;;;;;;6.20;5.70;;;2.20;99.90;;;;;;4991225;28;20258;-75
2021/03/20 10:52:37;;;;;;;6.47;5.87;;;2.20;99.90;;;;;;4992988;28;20168;-75
2021/03/20 10:55:36;;;;;;;7.00;6.40;;;2.20;99.90;;;;;;4993470;28;20195;-74
2021/03/20 10:58:03;;;;;;;6.57;5.97;;;2.30;99.90;;;;;;5009193;28;20200;-75
2021/03/20 11:00:39;;;;;;;6.27;5.70;;;2.40;99.90;;;;;;5009666;28;20172;-74
2021/03/20 11:03:14;;;;;;;7.90;6.20;;;2.50;99.90;;;;;;4993999;28;20613;-75
2021/03/20 11:05:42;;;;;;;5.43;4.97;;;2.60;99.90;;;;;;4992960;28;20174;-74
2021/03/20 11:08:13;;;;;;;6.70;5.73;;;2.80;99.90;;;;;;4992876;28;20282;-74
2021/03/20 11:10:43;;;;;;;5.80;5.30;;;2.80;99.90;;;;;;4992853;28;20730;-75
2021/03/20 11:13:33;;;;;;;7.33;5.87;;;2.80;99.90;;;;;;4991359;28;20266;-74
2021/03/20 11:16:06;;;;;;;5.57;5.00;;;2.80;99.90;;;;;;4994035;28;20702;-74
2021/03/20 11:18:35;;;;;;;6.37;5.77;;;2.80;99.90;;;;;;4993814;28;20191;-75
2021/03/20 11:21:12;;;;;;;6.50;5.90;;;2.80;99.90;;;;;;4993740;28;20181;-75
2021/03/20 11:23:38;;;;;;;6.43;5.40;;;3.00;99.90;;;;;;4993967;28;20282;-74
2021/03/20 11:26:26;;;;;;;6.50;5.83;;;3.00;99.90;;;;;;4994048;28;20717;-74
2021/03/20 11:28:53;;;;;;;5.57;5.07;;;3.20;99.90;;;;;;4992833;28;20239;-74
2021/03/20 11:31:21;;;;;;;7.30;5.60;;;3.20;99.90;;;;;;4992557;28;20168;-74
2021/03/20 11:33:48;;;;;;;6.10;5.50;;;3.00;99.90;;;;;;4993698;28;20180;-74
2021/03/20 11:36:25;;;;;;;6.07;5.53;;;3.10;99.90;;;;;;5009088;28;20230;-75
2021/03/20 11:38:50;;;;;;;5.33;4.93;;;3.20;99.90;;;;;;4993769;28;20659;-75
2021/03/20 11:41:35;;;;;;;5.67;5.17;;;3.40;99.90;;;;;;4992167;28;20171;-73
2021/03/20 11:44:06;;;;;;;5.17;4.67;;;3.40;99.90;;;;;;4993638;28;20282;-74
2021/03/20 11:46:46;;;;;;;4.97;4.57;;;3.50;99.90;;;;;;4993591;28;20172;-75
2021/03/20 11:49:35;;;;;;;5.57;5.07;;;3.60;99.90;;;;;;4993667;28;20223;-74
2021/03/20 11:52:01;;;;;;;5.97;5.47;;;3.80;99.90;;;;;;4993548;28;20168;-74
2021/03/20 11:54:39;;;;;;;4.87;4.47;;;3.90;99.90;;;;;;4993562;28;20183;-73
2021/03/20 11:57:32;;;;;;;4.83;4.37;;;3.90;99.90;;;;;;4993483;28;20175;-74
2021/03/20 11:59:58;;;;;;;5.20;4.70;;;3.70;99.90;;;;;;4993581;28;20655;-74
2021/03/20 12:02:23;;;;;;;6.40;5.00;;;3.60;99.90;;;;;;5009039;28;20180;-74
2021/03/20 12:05:25;;;;;;;5.03;4.63;;;3.50;99.90;;;;;;4994284;28;20203;-74
2021/03/20 12:08:10;;;;;;;5.13;4.60;;;3.50;99.90;;;;;;4993122;28;20242;-74
2021/03/20 12:10:36;;;;;;;6.63;5.53;;;3.70;99.90;;;;;;4996360;28;20548;-74
2021/03/20 12:13:01;;;;;;;6.30;5.40;;;3.70;99.90;;;;;;5012514;28;20176;-74
2021/03/20 12:15:35;;;;;;;6.77;6.07;;;3.60;99.90;;;;;;4997228;28;20185;-75
2021/03/20 12:18:11;;;;;;;6.07;5.57;;;3.70;99.90;;;;;;4997159;28;20258;-74
2021/03/20 12:20:41;;;;;;;8.13;5.80;;;3.70;99.90;;;;;;4997545;28;20682;-74
2021/03/20 12:23:19;;;;;;;5.63;5.13;;;3.60;99.90;;;;;;4997386;28;20175;-74
2021/03/20 12:25:53;;;;;;;4.90;4.50;;;3.50;99.90;;;;;;4997246;28;20517;-74
2021/03/20 12:28:30;;;;;;;6.03;5.07;;;3.40;99.90;;;;;;5033307;23;20711;-75
2021/03/20 12:31:07;;;;;;;6.37;5.80;;;3.30;99.90;;;;;;5052895;28;20195;-75
2021/03/20 12:34:04;;;;;;;5.67;5.17;;;3.30;99.90;;;;;;5056757;28;20269;-75
2021/03/20 12:36:38;;;;;;;6.57;5.87;;;3.40;99.90;;;;;;5056423;28;20173;-75
2021/03/20 12:39:10;;;;;;;5.70;5.20;;;3.30;99.90;;;;;;5054801;28;20256;-75
2021/03/20 12:41:37;;;;;;;5.80;5.30;;;3.30;99.90;;;;;;5056429;28;20174;-75
2021/03/20 12:44:06;;;;;;;5.40;4.90;;;3.40;99.90;;;;;;5054847;28;20201;-74
2021/03/20 12:46:34;;;;;;;6.00;5.37;;;3.50;99.90;;;;;;5056429;28;20592;-75
2021/03/20 12:48:59;;;;;;;7.43;4.97;;;3.60;99.90;;;;;;5054719;28;20199;-75
2021/03/20 12:51:25;;;;;;;5.80;5.30;;;3.60;99.90;;;;;;5039365;28;20195;-76
2021/03/20 12:53:51;;;;;;;5.70;5.07;;;3.60;99.90;;;;;;5054614;28;20232;-76
2021/03/20 12:56:17;;;;;;;5.90;5.30;;;3.60;99.90;;;;;;5055893;28;20659;-75
2021/03/20 12:58:43;;;;;;;6.57;5.10;;;3.50;99.90;;;;;;5031268;28;20693;-76
2021/03/20 13:01:09;;;;;;;5.17;4.67;;;3.60;99.90;;;;;;5035918;28;20240;-75
2021/03/20 13:03:36;;;;;;;5.47;4.60;;;3.70;99.90;;;;;;5035650;28;20268;-75
2021/03/20 13:06:02;;;;;;;4.53;4.13;;;3.70;99.90;;;;;;5036020;28;20179;-74
2021/03/20 13:08:28;;;;;;;4.77;4.43;;;3.80;99.90;;;;;;5035778;28;20194;-75
2021/03/20 13:10:54;;;;;;;4.43;4.03;;;3.90;99.90;;;;;;5034771;28;20280;-75
2021/03/20 13:13:20;;;;;;;4.97;4.47;;;3.80;99.90;;;;;;5034881;28;20191;-75
2021/03/20 13:15:47;;;;;;;4.97;4.47;;;3.90;99.90;;;;;;5035699;28;20258;-75
2021/03/20 13:18:13;;;;;;;4.00;3.60;;;3.90;99.90;;;;;;5032917;28;20691;-72
2021/03/20 13:20:39;;;;;;;4.47;4.07;;;4.00;99.90;;;;;;5028793;28;20183;-72
2021/03/20 13:23:05;;;;;;;5.43;4.93;;;4.00;99.90;;;;;;5024648;28;20245;-72
2021/03/20 13:25:34;;;;;;;4.97;4.07;;;3.90;99.90;;;;;;5035329;28;20186;-72
2021/03/20 13:28:01;;;;;;;4.37;4.00;;;3.80;99.90;;;;;;5033718;28;20306;-73
2021/03/20 13:30:31;;;;;;;4.43;4.03;;;3.90;99.90;;;;;;5035399;28;20241;-72
2021/03/20 13:32:57;;;;;;;4.30;4.00;;;4.00;99.90;;;;;;5035041;28;20225;-72
2021/03/20 13:35:27;;;;;;;7.33;4.20;;;3.90;99.90;;;;;;5033882;28;20213;-74
2021/03/20 13:37:54;;;;;;;5.10;4.30;;;3.80;99.90;;;;;;5035438;28;20204;-73
2021/03/20 13:40:22;;;;;;;4.17;3.87;;;3.80;99.90;;;;;;5035287;28;20548;-73
2021/03/20 13:42:48;;;;;;;4.37;4.07;;;3.70;99.90;;;;;;5034757;28;20243;-73